createdAt,value
2018-02-20T00:00:37.489Z,46.37
2018-02-20T00:03:12.488Z,43.57
2018-02-20T00:05:47.678Z,44.67
2018-02-20T00:08:23.314Z,41.50
2018-02-20T00:10:58.477Z,42.07
2018-02-20T00:13:33.539Z,40.83
2018-02-20T00:16:08.719Z,39.30
2018-02-20T00:18:44.291Z,40.60
2018-02-20T00:21:19.480Z,42.73
2018-02-20T00:23:54.407Z,45.50
2018-02-20T00:26:29.523Z,44.47
2018-02-20T00:29:04.867Z,40.30
2018-02-20T00:31:39.888Z,41.60
2018-02-20T00:34:15.095Z,43.87
2018-02-20T00:36:49.500Z,38.10
2018-02-20T00:39:24.390Z,37.28
2018-02-20T00:41:59.676Z,38.77
2018-02-20T00:44:34.080Z,41.30
2018-02-20T00:47:09.335Z,39.67
2018-02-20T00:49:43.788Z,44.07
2018-02-20T00:52:18.443Z,41.17
2018-02-20T00:54:53.551Z,41.90
2018-02-20T00:57:28.471Z,53.10
2018-02-20T01:00:03.224Z,44.95
2018-02-20T01:02:38.627Z,41.87
2018-02-20T01:05:13.693Z,38.53
2018-02-20T01:07:48.581Z,47.33
2018-02-20T01:10:23.392Z,44.33
2018-02-20T01:12:58.844Z,40.20
2018-02-20T01:15:33.812Z,40.70
2018-02-20T01:18:08.921Z,43.28
2018-02-20T01:20:43.792Z,42.37
2018-02-20T01:23:18.911Z,41.30
2018-02-20T01:25:54.576Z,39.97
2018-02-20T01:28:28.928Z,43.00
2018-02-20T01:31:04.575Z,42.67
2018-02-20T01:33:39.606Z,39.87
2018-02-20T01:36:14.654Z,41.30
2018-02-20T01:38:49.703Z,38.97
2018-02-20T01:41:24.240Z,44.30
2018-02-20T01:43:59.783Z,43.87
2018-02-20T01:46:34.740Z,41.50
2018-02-20T01:49:09.667Z,36.30
2018-02-20T01:51:44.620Z,41.40
2018-02-20T01:54:19.739Z,41.47
2018-02-20T01:56:54.400Z,45.20
2018-02-20T01:59:29.559Z,40.37
2018-02-20T02:02:04.115Z,39.07
2018-02-20T02:04:39.020Z,40.13
2018-02-20T02:07:13.760Z,38.63
2018-02-20T02:09:48.686Z,37.60
2018-02-20T02:12:23.023Z,40.03
2018-02-20T02:14:58.284Z,46.60
2018-02-20T02:17:32.847Z,42.10
2018-02-20T02:20:07.803Z,39.17
2018-02-20T02:22:42.847Z,38.97
2018-02-20T02:25:17.800Z,41.70
2018-02-20T02:27:53.003Z,36.40
2018-02-20T02:30:28.172Z,35.40
2018-02-20T02:33:03.380Z,39.70
2018-02-20T02:35:37.947Z,45.07
2018-02-20T02:38:13.807Z,39.40
2018-02-20T02:40:48.780Z,37.87
2018-02-20T02:43:23.840Z,40.40
2018-02-20T02:45:58.515Z,41.80
2018-02-20T02:48:33.801Z,41.80
2018-02-20T02:51:09.052Z,40.73
2018-02-20T02:53:43.864Z,42.83
2018-02-20T02:56:18.743Z,39.28
2018-02-20T02:58:53.019Z,44.20
2018-02-20T03:01:27.377Z,37.83
2018-02-20T03:04:02.520Z,41.30
2018-02-20T03:06:37.275Z,39.60
2018-02-20T03:09:12.123Z,42.00
2018-02-20T03:11:46.900Z,39.50
2018-02-20T03:14:22.083Z,44.73
2018-02-20T03:16:57.271Z,42.17
2018-02-20T03:19:31.935Z,46.50
2018-02-20T03:22:07.227Z,41.45
2018-02-20T03:24:41.987Z,41.78
2018-02-20T03:27:17.083Z,44.73
2018-02-20T03:29:51.823Z,40.65
2018-02-20T03:32:26.184Z,46.27
2018-02-20T03:35:01.332Z,40.63
2018-02-20T03:37:36.423Z,44.13
2018-02-20T03:40:11.583Z,42.10
2018-02-20T03:42:46.225Z,43.67
2018-02-20T03:45:21.499Z,44.87
2018-02-20T03:47:57.278Z,40.77
2018-02-20T03:50:31.915Z,42.57
2018-02-20T03:53:07.003Z,38.10
2018-02-20T03:55:42.007Z,44.30
2018-02-20T03:58:16.944Z,41.77
2018-02-20T04:00:52.104Z,40.60
2018-02-20T04:03:27.247Z,40.63
2018-02-20T04:06:02.524Z,35.57
2018-02-20T04:08:37.036Z,39.83
2018-02-20T04:11:12.359Z,49.33
2018-02-20T04:13:47.038Z,44.13
2018-02-20T04:16:21.382Z,45.50
2018-02-20T04:18:57.310Z,39.78
2018-02-20T04:21:32.282Z,43.03
2018-02-20T04:24:07.167Z,40.37
2018-02-20T04:26:42.045Z,38.10
2018-02-20T04:29:17.191Z,47.57
2018-02-20T04:31:52.070Z,41.10
2018-02-20T04:34:27.347Z,40.30
2018-02-20T04:37:02.204Z,39.73
2018-02-20T04:39:36.955Z,40.20
2018-02-20T04:42:12.447Z,41.67
2018-02-20T04:44:47.257Z,39.37
2018-02-20T04:47:22.262Z,42.13
2018-02-20T04:49:57.548Z,41.30
2018-02-20T04:52:32.523Z,38.27
2018-02-20T04:55:07.968Z,43.65
2018-02-20T04:57:43.060Z,38.43
2018-02-20T05:00:18.256Z,43.30
2018-02-20T05:02:52.999Z,45.88
2018-02-20T05:05:28.244Z,39.00
2018-02-20T05:08:03.544Z,35.70
2018-02-20T05:10:38.129Z,41.70
2018-02-20T05:13:13.423Z,38.80
2018-02-20T05:15:48.419Z,35.63
2018-02-20T05:18:23.987Z,50.72
2018-02-20T05:20:59.175Z,37.50
2018-02-20T05:23:34.431Z,39.10
2018-02-20T05:26:09.635Z,41.80
2018-02-20T05:28:44.348Z,35.30
2018-02-20T05:31:19.208Z,47.88
2018-02-20T05:33:53.668Z,43.67
2018-02-20T05:36:28.162Z,43.70
2018-02-20T05:39:02.939Z,41.63
2018-02-20T05:41:37.649Z,41.63
2018-02-20T05:44:12.911Z,40.15
2018-02-20T05:46:48.290Z,41.57
2018-02-20T05:49:23.291Z,43.27
2018-02-20T05:51:58.281Z,38.08
2018-02-20T05:54:33.227Z,44.83
2018-02-20T05:57:09.027Z,50.15
2018-02-20T05:59:44.374Z,46.67
2018-02-20T06:02:19.424Z,43.90
2018-02-20T06:04:54.723Z,43.27
2018-02-20T06:07:29.347Z,45.50
2018-02-20T06:10:03.927Z,41.35
2018-02-20T06:12:39.192Z,45.53
2018-02-20T06:15:14.391Z,44.37
2018-02-20T06:17:49.422Z,42.73
2018-02-20T06:20:24.591Z,46.73
2018-02-20T06:22:59.902Z,48.17
2018-02-20T06:25:35.279Z,38.93
2018-02-20T06:28:10.575Z,44.00
2018-02-20T06:30:46.215Z,43.15
2018-02-20T06:33:21.269Z,40.57
2018-02-20T06:35:57.653Z,41.10
2018-02-20T06:38:32.708Z,41.40
2018-02-20T06:41:08.300Z,37.67
2018-02-20T06:43:43.306Z,40.90
2018-02-20T06:46:18.295Z,42.33
2018-02-20T06:48:53.427Z,42.70
2018-02-20T06:51:28.579Z,38.10
2018-02-20T06:54:03.761Z,34.23
2018-02-20T06:56:38.803Z,35.17
2018-02-20T06:59:14.590Z,37.45
2018-02-20T07:01:50.007Z,43.67
2018-02-20T07:04:25.491Z,52.40
2018-02-20T07:07:00.415Z,45.80
2018-02-20T07:09:35.492Z,46.30
2018-02-20T07:12:10.766Z,39.10
2018-02-20T07:14:46.183Z,41.07
2018-02-20T07:17:21.396Z,43.33
2018-02-20T07:19:57.703Z,41.25
2018-02-20T07:22:32.657Z,40.40
2018-02-20T07:25:07.531Z,48.17
2018-02-20T07:27:41.881Z,48.53
2018-02-20T07:30:17.447Z,40.53
2018-02-20T07:32:52.411Z,32.40
2018-02-20T07:35:27.655Z,37.90
2018-02-20T07:38:03.477Z,39.85
2018-02-20T07:40:38.012Z,40.93
2018-02-20T07:43:12.691Z,46.47
2018-02-20T07:45:47.393Z,39.97
2018-02-20T07:48:22.547Z,55.00
2018-02-20T07:50:57.808Z,47.07
2018-02-20T07:53:32.884Z,48.47
2018-02-20T07:56:08.424Z,40.40
2018-02-20T07:58:43.790Z,46.67
2018-02-20T08:01:19.035Z,47.50
2018-02-20T08:03:53.703Z,43.07
2018-02-20T08:06:28.600Z,46.07
2018-02-20T08:09:03.048Z,45.42
2018-02-20T08:11:37.627Z,43.20
2018-02-20T08:14:13.047Z,40.77
2018-02-20T08:16:48.131Z,40.80
2018-02-20T08:19:22.867Z,43.47
2018-02-20T08:21:57.971Z,43.47
2018-02-20T08:24:32.827Z,35.73
2018-02-20T08:27:07.838Z,39.73
2018-02-20T08:29:43.150Z,44.67
2018-02-20T08:32:18.340Z,41.00
2018-02-20T08:34:53.649Z,45.40
2018-02-20T08:37:28.607Z,41.97
2018-02-20T08:40:03.540Z,38.97
2018-02-20T08:42:38.525Z,40.13
2018-02-20T08:45:13.799Z,38.92
2018-02-20T08:47:48.715Z,38.40
2018-02-20T08:50:23.754Z,37.73
2018-02-20T08:52:59.001Z,41.97
2018-02-20T08:55:33.676Z,39.17
2018-02-20T08:58:09.124Z,41.10
2018-02-20T09:00:44.004Z,43.53
2018-02-20T09:03:18.735Z,35.90
2018-02-20T09:05:53.888Z,35.60
2018-02-20T09:08:28.664Z,39.97
2018-02-20T09:11:03.936Z,38.88
2018-02-20T09:13:38.776Z,39.53
2018-02-20T09:16:14.044Z,35.60
2018-02-20T09:18:49.205Z,40.50
2018-02-20T09:21:24.775Z,37.13
2018-02-20T09:23:59.627Z,37.30
2018-02-20T09:26:34.632Z,39.83
2018-02-20T09:29:09.870Z,36.35
2018-02-20T09:31:44.840Z,45.30
2018-02-20T09:34:19.875Z,41.47
2018-02-20T09:36:55.048Z,34.30
2018-02-20T09:39:29.979Z,32.23
2018-02-20T09:42:05.028Z,38.47
2018-02-20T09:44:40.083Z,35.13
2018-02-20T09:47:15.671Z,35.60
2018-02-20T09:49:50.843Z,34.07
2018-02-20T09:52:26.135Z,34.20
2018-02-20T09:55:00.904Z,37.63
2018-02-20T09:57:35.719Z,31.63
2018-02-20T10:00:10.072Z,35.63
2018-02-20T10:02:44.864Z,33.37
2018-02-20T10:05:19.756Z,32.60
2018-02-20T10:07:54.916Z,27.20
2018-02-20T10:10:30.021Z,30.90
2018-02-20T10:13:06.564Z,33.40
2018-02-20T10:15:41.844Z,34.33
2018-02-20T10:18:17.150Z,32.27
2018-02-20T10:20:51.992Z,28.53
2018-02-20T10:23:26.987Z,33.10
2018-02-20T10:26:02.716Z,32.07
2018-02-20T10:28:37.839Z,32.70
2018-02-20T10:31:13.039Z,33.03
2018-02-20T10:33:48.312Z,70.80
2018-02-20T10:36:23.315Z,31.77
2018-02-20T10:38:58.760Z,30.75
2018-02-20T10:41:33.821Z,28.73
2018-02-20T10:44:09.280Z,25.10
2018-02-20T10:46:44.838Z,30.67
2018-02-20T10:49:19.947Z,32.80
2018-02-20T10:51:55.039Z,32.30
2018-02-20T10:54:30.016Z,30.20
2018-02-20T10:57:05.667Z,31.45
2018-02-20T10:59:40.971Z,31.70
2018-02-20T11:02:16.250Z,28.87
2018-02-20T11:04:51.279Z,28.90
2018-02-20T11:07:25.767Z,26.10
2018-02-20T11:10:01.239Z,30.27
2018-02-20T11:12:36.371Z,30.30
2018-02-20T11:15:12.135Z,29.52
2018-02-20T11:17:47.064Z,28.33
2018-02-20T11:20:21.923Z,28.57
2018-02-20T11:22:56.275Z,30.57
2018-02-20T11:25:31.235Z,35.80
2018-02-20T11:28:06.055Z,30.57
2018-02-20T11:30:41.038Z,28.30
2018-02-20T11:33:16.083Z,26.17
2018-02-20T11:35:50.931Z,30.67
2018-02-20T11:38:26.088Z,25.67
2018-02-20T11:41:00.630Z,27.20
2018-02-20T11:43:35.579Z,27.50
2018-02-20T11:46:10.515Z,24.77
2018-02-20T11:48:45.161Z,28.63
2018-02-20T11:51:20.200Z,24.20
2018-02-20T11:53:55.196Z,23.60
2018-02-20T11:56:30.179Z,28.97
2018-02-20T11:59:05.312Z,27.67
2018-02-20T12:01:40.060Z,32.67
2018-02-20T12:04:15.244Z,29.53
2018-02-20T12:06:50.048Z,30.50
2018-02-20T12:09:25.691Z,27.93
2018-02-20T12:12:01.134Z,28.63
2018-02-20T12:14:36.438Z,26.70
2018-02-20T12:17:12.091Z,29.75
2018-02-20T12:19:47.534Z,31.53
2018-02-20T12:22:23.038Z,28.47
2018-02-20T12:24:58.446Z,30.43
2018-02-20T12:27:33.223Z,34.90
2018-02-20T12:30:08.037Z,34.72
2018-02-20T12:32:43.235Z,32.60
2018-02-20T12:35:18.173Z,35.30
2018-02-20T12:37:52.612Z,34.80
2018-02-20T12:40:27.570Z,36.50
2018-02-20T12:43:03.447Z,30.75
2018-02-20T12:45:38.511Z,30.17
2018-02-20T12:48:13.656Z,29.10
2018-02-20T12:50:49.092Z,28.93
2018-02-20T12:53:24.164Z,32.70
2018-02-20T12:55:59.607Z,31.33
2018-02-20T12:58:34.299Z,27.20
2018-02-20T13:01:09.143Z,27.80
2018-02-20T13:03:44.351Z,30.50
2018-02-20T13:06:19.408Z,27.77
2018-02-20T13:08:54.616Z,29.67
2018-02-20T13:11:29.472Z,28.40
2018-02-20T13:14:05.452Z,27.70
2018-02-20T13:16:40.650Z,26.57
2018-02-20T13:19:16.141Z,30.03
2018-02-20T13:21:51.283Z,26.53
2018-02-20T13:24:26.362Z,28.20
2018-02-20T13:27:01.252Z,26.93
2018-02-20T13:29:36.323Z,29.53
2018-02-20T13:32:10.771Z,29.23
2018-02-20T13:34:46.275Z,29.50
2018-02-20T13:37:21.331Z,30.20
2018-02-20T13:39:56.412Z,32.47
2018-02-20T13:42:31.340Z,33.20
2018-02-20T13:45:06.154Z,40.85
2018-02-20T13:47:41.184Z,34.92
2018-02-20T13:50:16.223Z,35.90
2018-02-20T13:52:51.162Z,34.88
2018-02-20T13:55:26.435Z,33.13
2018-02-20T13:58:01.499Z,34.03
2018-02-20T14:00:36.395Z,33.83
2018-02-20T14:03:11.355Z,32.60
2018-02-20T14:05:46.343Z,33.13
2018-02-20T14:08:21.354Z,39.80
2018-02-20T14:10:56.175Z,39.20
2018-02-20T14:13:31.447Z,32.77
2018-02-20T14:16:06.619Z,32.83
2018-02-20T14:18:41.488Z,29.67
2018-02-20T14:21:16.440Z,35.57
2018-02-20T14:23:51.757Z,39.83
2018-02-20T14:26:26.700Z,40.97
2018-02-20T14:29:01.771Z,35.40
2018-02-20T14:31:36.843Z,33.47
2018-02-20T14:34:11.899Z,39.37
2018-02-20T14:36:47.399Z,43.93
2018-02-20T14:39:22.431Z,39.07
2018-02-20T14:41:57.539Z,46.73
2018-02-20T14:44:31.959Z,42.53
2018-02-20T14:47:06.592Z,39.40
2018-02-20T14:49:41.311Z,45.63
2018-02-20T14:52:16.195Z,46.80
2018-02-20T14:54:51.676Z,51.63
2018-02-20T14:57:26.550Z,41.60
2018-02-20T15:00:01.879Z,45.93
2018-02-20T15:02:37.435Z,44.13
2018-02-20T15:05:12.687Z,38.77
2018-02-20T15:07:47.427Z,51.20
2018-02-20T15:10:21.959Z,43.13
2018-02-20T15:12:56.943Z,39.73
2018-02-20T15:15:32.571Z,53.13
2018-02-20T15:18:07.035Z,64.25
2018-02-20T15:20:42.383Z,76.70
2018-02-20T15:23:17.436Z,77.67
2018-02-20T15:25:52.694Z,63.23
2018-02-20T15:28:27.910Z,86.67
2018-02-20T15:31:02.730Z,63.83
2018-02-20T15:33:37.767Z,53.53
2018-02-20T15:36:13.575Z,50.15
2018-02-20T15:38:48.604Z,57.30
2018-02-20T15:41:23.588Z,52.33
2018-02-20T15:43:58.956Z,54.93
2018-02-20T15:46:34.408Z,64.57
2018-02-20T15:49:09.484Z,59.55
2018-02-20T15:51:43.921Z,57.23
2018-02-20T15:54:18.568Z,56.63
2018-02-20T15:56:53.120Z,55.50
2018-02-20T15:59:27.830Z,49.37
2018-02-20T16:02:02.619Z,51.37
2018-02-20T16:04:37.572Z,51.90
2018-02-20T16:07:12.815Z,53.45
2018-02-20T16:09:47.571Z,50.83
2018-02-20T16:12:22.898Z,47.67
2018-02-20T16:14:58.703Z,45.97
2018-02-20T16:17:33.768Z,45.70
2018-02-20T16:20:09.592Z,53.25
2018-02-20T16:22:44.736Z,57.97
2018-02-20T16:25:19.523Z,56.40
2018-02-20T16:27:54.481Z,54.65
2018-02-20T16:30:29.608Z,59.80
2018-02-20T16:33:03.824Z,59.60
2018-02-20T16:35:38.720Z,61.40
2018-02-20T16:38:13.609Z,56.97
2018-02-20T16:40:49.084Z,56.60
2018-02-20T16:43:23.915Z,51.20
2018-02-20T16:45:59.078Z,56.00
2018-02-20T16:48:34.044Z,55.87
2018-02-20T16:51:09.054Z,52.23
2018-02-20T16:53:44.802Z,62.00
2018-02-20T16:56:19.659Z,64.63
2018-02-20T16:58:54.888Z,49.53
2018-02-20T17:01:30.480Z,55.47
2018-02-20T17:04:04.900Z,44.42
2018-02-20T17:06:40.181Z,49.43
2018-02-20T17:09:15.616Z,47.53
2018-02-20T17:11:50.466Z,51.43
2018-02-20T17:14:24.987Z,56.60
2018-02-20T17:17:00.040Z,60.60
2018-02-20T17:19:35.116Z,58.00
2018-02-20T17:22:10.371Z,80.10
2018-02-20T17:24:44.850Z,84.60
2018-02-20T17:27:20.099Z,88.07
2018-02-20T17:29:54.699Z,69.53
2018-02-20T17:32:29.296Z,54.37
2018-02-20T17:35:03.708Z,51.60
2018-02-20T17:37:38.963Z,56.90
2018-02-20T17:40:14.156Z,46.73
2018-02-20T17:42:49.062Z,55.40
2018-02-20T17:45:24.143Z,49.77
2018-02-20T17:47:59.567Z,57.22
2018-02-20T17:50:33.768Z,54.40
2018-02-20T17:53:12.367Z,57.60
2018-02-20T17:55:47.122Z,56.57
2018-02-20T17:58:22.184Z,51.20
2018-02-20T18:00:57.031Z,52.80
2018-02-20T18:03:31.994Z,54.63
2018-02-20T18:06:07.707Z,57.75
2018-02-20T18:08:42.803Z,52.63
2018-02-20T18:11:17.168Z,55.33
2018-02-20T18:13:51.618Z,55.65
2018-02-20T18:16:26.954Z,54.40
2018-02-20T18:19:02.236Z,55.43
2018-02-20T18:21:37.832Z,53.38
2018-02-20T18:24:12.179Z,60.60
2018-02-20T18:26:46.823Z,65.70
2018-02-20T18:29:21.075Z,58.93
2018-02-20T18:31:55.995Z,58.33
2018-02-20T18:34:31.076Z,59.93
2018-02-20T18:37:06.413Z,49.40
2018-02-20T18:39:41.745Z,47.53
2018-02-20T18:42:16.812Z,52.60
2018-02-20T18:44:51.794Z,46.15
2018-02-20T18:47:26.940Z,52.73
2018-02-20T18:50:18.882Z,52.03
2018-02-20T18:52:55.119Z,56.40
2018-02-20T18:55:29.971Z,56.43
2018-02-20T18:58:04.759Z,56.42
2018-02-20T19:00:39.239Z,52.77
2018-02-20T19:03:14.003Z,54.28
2018-02-20T19:05:50.901Z,51.20
2018-02-20T19:08:25.873Z,46.07
2018-02-20T19:11:01.323Z,51.90
2018-02-20T19:13:36.247Z,49.93
2018-02-20T19:16:11.586Z,52.43
2018-02-20T19:18:46.891Z,54.55
2018-02-20T19:21:21.986Z,50.77
2018-02-20T19:23:56.948Z,65.20
2018-02-20T19:26:32.100Z,57.57
2018-02-20T19:29:07.399Z,51.70
2018-02-20T19:31:42.475Z,58.13
2018-02-20T19:34:17.176Z,65.85
2018-02-20T19:36:51.601Z,51.07
2018-02-20T19:39:27.031Z,50.73
2018-02-20T19:42:02.220Z,51.83
2018-02-20T19:44:37.419Z,56.90
2018-02-20T19:47:13.131Z,55.33
2018-02-20T19:49:49.292Z,58.93
2018-02-20T19:52:24.431Z,71.77
2018-02-20T19:54:59.295Z,76.60
2018-02-20T19:57:34.030Z,45.47
2018-02-20T20:00:08.704Z,55.40
2018-02-20T20:02:43.460Z,55.07
2018-02-20T20:05:18.018Z,59.57
2018-02-20T20:07:53.176Z,54.30
2018-02-20T20:10:28.151Z,57.67
2018-02-20T20:13:03.388Z,55.47
2018-02-20T20:15:38.459Z,54.00
2018-02-20T20:18:13.569Z,54.07
2018-02-20T20:20:49.043Z,52.67
2018-02-20T20:23:24.421Z,60.80
2018-02-20T20:25:59.131Z,58.70
2018-02-20T20:28:34.239Z,58.03
2018-02-20T20:31:09.368Z,52.43
2018-02-20T20:33:44.484Z,52.07
2018-02-20T20:36:19.636Z,59.43
2018-02-20T20:38:55.271Z,52.00
2018-02-20T20:41:30.274Z,51.30
2018-02-20T20:44:04.723Z,53.73
2018-02-20T20:46:39.467Z,57.27
2018-02-20T20:49:14.451Z,54.57
2018-02-20T20:51:49.435Z,61.37
2018-02-20T20:54:24.548Z,55.90
2018-02-20T20:56:59.536Z,55.30
2018-02-20T20:59:35.111Z,49.05
2018-02-20T21:02:10.583Z,59.70
2018-02-20T21:04:45.527Z,48.63
2018-02-20T21:07:20.147Z,56.58
2018-02-20T21:09:55.271Z,49.10
2018-02-20T21:12:30.135Z,48.27
2018-02-20T21:15:05.189Z,49.47
2018-02-20T21:17:40.230Z,61.87
2018-02-20T21:20:15.451Z,58.87
2018-02-20T21:22:50.747Z,61.57
2018-02-20T21:25:25.784Z,65.83
2018-02-20T21:28:01.327Z,80.93
2018-02-20T21:30:36.184Z,79.00
2018-02-20T21:33:11.463Z,65.15
2018-02-20T21:35:46.436Z,51.67
2018-02-20T21:38:21.581Z,53.93
2018-02-20T21:40:56.648Z,54.80
2018-02-20T21:43:31.475Z,51.50
2018-02-20T21:46:06.272Z,49.92
2018-02-20T21:48:41.200Z,55.27
2018-02-20T21:51:16.619Z,50.67
2018-02-20T21:53:51.926Z,47.90
2018-02-20T21:56:26.592Z,54.37
2018-02-20T21:59:01.712Z,52.87
2018-02-20T22:01:36.273Z,49.37
2018-02-20T22:04:11.498Z,60.40
2018-02-20T22:06:45.919Z,52.40
2018-02-20T22:09:21.326Z,49.20
2018-02-20T22:11:56.711Z,50.90
2018-02-20T22:14:31.789Z,60.87
2018-02-20T22:17:07.183Z,95.78
2018-02-20T22:19:41.836Z,62.50
2018-02-20T22:22:17.028Z,64.60
2018-02-20T22:24:51.595Z,56.33
2018-02-20T22:27:25.927Z,62.50
2018-02-20T22:30:00.682Z,53.90
2018-02-20T22:32:36.239Z,51.72
2018-02-20T22:35:11.508Z,60.10
2018-02-20T22:37:45.968Z,54.73
2018-02-20T22:40:20.311Z,61.03
2018-02-20T22:42:55.634Z,72.93
2018-02-20T22:45:30.968Z,84.10
2018-02-20T22:48:05.591Z,66.53
2018-02-20T22:50:40.747Z,60.70
2018-02-20T22:53:16.271Z,56.63
2018-02-20T22:55:51.428Z,58.60
2018-02-20T22:58:26.257Z,53.42
2018-02-20T23:01:01.616Z,52.47
2018-02-20T23:03:36.532Z,52.40
2018-02-20T23:06:11.708Z,54.97
2018-02-20T23:08:46.575Z,55.27
2018-02-20T23:11:32.711Z,46.80
2018-02-20T23:14:07.470Z,55.13
2018-02-20T23:16:42.407Z,58.97
2018-02-20T23:19:17.807Z,56.87
2018-02-20T23:21:53.299Z,56.58
2018-02-20T23:24:28.328Z,55.08
2018-02-20T23:27:03.518Z,56.13
2018-02-20T23:29:38.552Z,55.67
2018-02-20T23:32:13.186Z,68.50
2018-02-20T23:34:48.561Z,80.33
2018-02-20T23:37:23.579Z,60.97
2018-02-20T23:39:59.928Z,62.92
2018-02-20T23:42:34.699Z,51.00
2018-02-20T23:45:20.180Z,59.43
2018-02-20T23:47:54.437Z,55.60
2018-02-20T23:50:29.573Z,61.43
2018-02-20T23:53:04.511Z,57.03
2018-02-20T23:55:39.532Z,54.90
2018-02-20T23:58:15.111Z,52.77
